sensor_id;sensor_type;location;lat;lon;timestamp;temperature;humidity
1461;DHT22;724;49.910;12.530;2023-02-11T00:00:53;-2.30;99.90
1461;DHT22;724;49.910;12.530;2023-02-11T00:03:20;-2.20;99.90
1461;DHT22;724;49.910;12.530;2023-02-11T00:05:56;-2.10;99.90
1461;DHT22;724;49.910;12.530;2023-02-11T00:08:22;-2.00;99.90
1461;DHT22;724;49.910;12.530;2023-02-11T00:10:51;-2.00;1.00
1461;DHT22;724;49.910;12.530;2023-02-11T00:13:19;-1.90;1.00
1461;DHT22;724;49.910;12.530;2023-02-11T00:15:45;-1.90;1.00
1461;DHT22;724;49.910;12.530;2023-02-11T00:18:12;-1.90;1.00
1461;DHT22;724;49.910;12.530;2023-02-11T00:20:39;-2.00;1.00
1461;DHT22;724;49.910;12.530;2023-02-11T00:23:06;-2.00;1.00
1461;DHT22;724;49.910;12.530;2023-02-11T00:25:37;-2.00;1.00
1461;DHT22;724;49.910;12.530;2023-02-11T00:28:03;-2.10;1.00
1461;DHT22;724;49.910;12.530;2023-02-11T00:30:31;-2.10;1.00
1461;DHT22;724;49.910;12.530;2023-02-11T00:32:58;-2.10;99.90
1461;DHT22;724;49.910;12.530;2023-02-11T00:35:25;-2.10;99.90
1461;DHT22;724;49.910;12.530;2023-02-11T00:37:52;-2.10;99.90
1461;DHT22;724;49.910;12.530;2023-02-11T00:40:19;-2.10;99.90
1461;DHT22;724;49.910;12.530;2023-02-11T00:42:46;-2.10;99.90
1461;DHT22;724;49.910;12.530;2023-02-11T00:45:13;-2.10;99.90
1461;DHT22;724;49.910;12.530;2023-02-11T00:47:41;-2.10;99.90
1461;DHT22;724;49.910;12.530;2023-02-11T00:50:08;-2.10;99.90
1461;DHT22;724;49.910;12.530;2023-02-11T00:52:34;-2.10;99.90
1461;DHT22;724;49.910;12.530;2023-02-11T00:55:01;-2.20;99.90
1461;DHT22;724;49.910;12.530;2023-02-11T00:57:28;-2.20;99.90
1461;DHT22;724;49.910;12.530;2023-02-11T00:59:54;-2.20;99.90
1461;DHT22;724;49.910;12.530;2023-02-11T01:02:21;-2.20;99.90
1461;DHT22;724;49.910;12.530;2023-02-11T01:04:49;-2.20;99.90
1461;DHT22;724;49.910;12.530;2023-02-11T01:07:16;-2.30;99.90
1461;DHT22;724;49.910;12.530;2023-02-11T01:09:43;-2.40;99.90
1461;DHT22;724;49.910;12.530;2023-02-11T01:12:10;-2.40;99.90
1461;DHT22;724;49.910;12.530;2023-02-11T01:14:36;-2.40;99.90
1461;DHT22;724;49.910;12.530;2023-02-11T01:17:04;-2.40;99.90
1461;DHT22;724;49.910;12.530;2023-02-11T01:19:30;-2.40;99.90
1461;DHT22;724;49.910;12.530;2023-02-11T01:21:58;-2.50;99.90
1461;DHT22;724;49.910;12.530;2023-02-11T01:24:25;-2.50;99.90
1461;DHT22;724;49.910;12.530;2023-02-11T01:26:52;-2.50;99.90
1461;DHT22;724;49.910;12.530;2023-02-11T01:29:19;-2.50;99.90
1461;DHT22;724;49.910;12.530;2023-02-11T01:31:46;-2.40;99.90
1461;DHT22;724;49.910;12.530;2023-02-11T01:34:13;-2.40;99.90
1461;DHT22;724;49.910;12.530;2023-02-11T01:36:40;-2.30;99.90
1461;DHT22;724;49.910;12.530;2023-02-11T01:39:08;-2.30;99.90
1461;DHT22;724;49.910;12.530;2023-02-11T01:41:35;-2.30;99.90
1461;DHT22;724;49.910;12.530;2023-02-11T01:44:21;-2.40;99.90
1461;DHT22;724;49.910;12.530;2023-02-11T01:46:48;-2.40;99.90
1461;DHT22;724;49.910;12.530;2023-02-11T01:49:18;-2.40;99.90
1461;DHT22;724;49.910;12.530;2023-02-11T01:51:49;-2.50;99.90
1461;DHT22;724;49.910;12.530;2023-02-11T01:54:21;-2.40;99.90
1461;DHT22;724;49.910;12.530;2023-02-11T01:57:06;-2.50;99.90
1461;DHT22;724;49.910;12.530;2023-02-11T01:59:56;-2.40;99.90
1461;DHT22;724;49.910;12.530;2023-02-11T02:02:28;-2.40;99.90
1461;DHT22;724;49.910;12.530;2023-02-11T02:05:02;-2.30;99.90
1461;DHT22;724;49.910;12.530;2023-02-11T02:07:34;-2.30;99.90
1461;DHT22;724;49.910;12.530;2023-02-11T02:10:08;-2.30;99.90
1461;DHT22;724;49.910;12.530;2023-02-11T02:12:36;-2.20;99.90
1461;DHT22;724;49.910;12.530;2023-02-11T02:15:28;-2.20;99.90
1461;DHT22;724;49.910;12.530;2023-02-11T02:18:11;-2.20;99.90
1461;DHT22;724;49.910;12.530;2023-02-11T02:26:55;-2.10;99.90
1461;DHT22;724;49.910;12.530;2023-02-11T02:29:51;-2.10;99.90
1461;DHT22;724;49.910;12.530;2023-02-11T02:32:31;-2.10;84.20
1461;DHT22;724;49.910;12.530;2023-02-11T02:35:03;-2.10;14.20
1461;DHT22;724;49.910;12.530;2023-02-11T02:37:35;-2.10;6.80
1461;DHT22;724;49.910;12.530;2023-02-11T02:40:10;-2.20;1.00
1461;DHT22;724;49.910;12.530;2023-02-11T02:42:38;-2.20;25.50
1461;DHT22;724;49.910;12.530;2023-02-11T02:45:07;-2.20;62.10
1461;DHT22;724;49.910;12.530;2023-02-11T02:47:36;-2.20;99.90
1461;DHT22;724;49.910;12.530;2023-02-11T02:50:03;-2.20;99.90
1461;DHT22;724;49.910;12.530;2023-02-11T02:52:34;-2.20;99.90
1461;DHT22;724;49.910;12.530;2023-02-11T02:55:18;-2.20;99.90
1461;DHT22;724;49.910;12.530;2023-02-11T02:58:00;-2.20;99.90
1461;DHT22;724;49.910;12.530;2023-02-11T03:00:34;-2.10;99.90
1461;DHT22;724;49.910;12.530;2023-02-11T03:03:14;-2.10;81.40
1461;DHT22;724;49.910;12.530;2023-02-11T03:05:48;-2.10;37.80
1461;DHT22;724;49.910;12.530;2023-02-11T03:08:23;-2.10;27.00
1461;DHT22;724;49.910;12.530;2023-02-11T03:10:52;-2.00;22.90
1461;DHT22;724;49.910;12.530;2023-02-11T03:13:23;-2.00;1.00
1461;DHT22;724;49.910;12.530;2023-02-11T03:15:55;-2.00;1.00
1461;DHT22;724;49.910;12.530;2023-02-11T03:18:26;-2.00;1.00
1461;DHT22;724;49.910;12.530;2023-02-11T03:20:56;-2.00;1.00
1461;DHT22;724;49.910;12.530;2023-02-11T03:23:28;-2.00;1.00
1461;DHT22;724;49.910;12.530;2023-02-11T03:25:58;-2.00;6.60
1461;DHT22;724;49.910;12.530;2023-02-11T03:28:31;-1.90;32.50
1461;DHT22;724;49.910;12.530;2023-02-11T03:31:07;-1.90;79.00
1461;DHT22;724;49.910;12.530;2023-02-11T03:33:40;-1.80;28.10
1461;DHT22;724;49.910;12.530;2023-02-11T03:36:13;-1.80;28.10
1461;DHT22;724;49.910;12.530;2023-02-11T03:38:46;-1.80;16.90
1461;DHT22;724;49.910;12.530;2023-02-11T03:41:15;-1.80;2.50
1461;DHT22;724;49.910;12.530;2023-02-11T03:43:44;-1.80;1.00
1461;DHT22;724;49.910;12.530;2023-02-11T03:46:15;-1.80;1.00
1461;DHT22;724;49.910;12.530;2023-02-11T03:48:47;-1.80;1.00
1461;DHT22;724;49.910;12.530;2023-02-11T03:51:15;-1.80;1.00
1461;DHT22;724;49.910;12.530;2023-02-11T03:53:44;-1.80;1.00
1461;DHT22;724;49.910;12.530;2023-02-11T03:56:14;-1.80;1.00
1461;DHT22;724;49.910;12.530;2023-02-11T03:58:43;-1.80;14.50
1461;DHT22;724;49.910;12.530;2023-02-11T04:01:10;-1.80;45.20
1461;DHT22;724;49.910;12.530;2023-02-11T04:03:37;-1.80;69.60
1461;DHT22;724;49.910;12.530;2023-02-11T04:06:06;-1.90;53.30
1461;DHT22;724;49.910;12.530;2023-02-11T04:08:32;-1.90;99.90
1461;DHT22;724;49.910;12.530;2023-02-11T04:10:59;-1.90;99.90
1461;DHT22;724;49.910;12.530;2023-02-11T04:13:26;-1.90;99.90
1461;DHT22;724;49.910;12.530;2023-02-11T04:15:53;-1.90;99.90
1461;DHT22;724;49.910;12.530;2023-02-11T04:18:20;-2.00;99.90
1461;DHT22;724;49.910;12.530;2023-02-11T04:20:47;-2.00;99.90
1461;DHT22;724;49.910;12.530;2023-02-11T04:23:15;-1.90;99.90
1461;DHT22;724;49.910;12.530;2023-02-11T04:25:42;-1.90;99.90
1461;DHT22;724;49.910;12.530;2023-02-11T04:28:09;-2.00;99.90
1461;DHT22;724;49.910;12.530;2023-02-11T04:30:35;-2.00;99.90
1461;DHT22;724;49.910;12.530;2023-02-11T04:33:02;-2.00;99.90
1461;DHT22;724;49.910;12.530;2023-02-11T04:35:29;-2.00;99.90
1461;DHT22;724;49.910;12.530;2023-02-11T04:37:56;-2.00;99.90
1461;DHT22;724;49.910;12.530;2023-02-11T04:40:24;-2.00;99.90
1461;DHT22;724;49.910;12.530;2023-02-11T04:42:50;-2.00;99.90
1461;DHT22;724;49.910;12.530;2023-02-11T04:45:17;-1.90;99.90
1461;DHT22;724;49.910;12.530;2023-02-11T04:47:44;-2.00;99.90
1461;DHT22;724;49.910;12.530;2023-02-11T04:50:11;-1.90;99.90
1461;DHT22;724;49.910;12.530;2023-02-11T04:52:37;-1.80;1.00
1461;DHT22;724;49.910;12.530;2023-02-11T04:55:05;-1.70;1.00
1461;DHT22;724;49.910;12.530;2023-02-11T04:57:33;-1.70;1.00
1461;DHT22;724;49.910;12.530;2023-02-11T05:00:00;-1.70;1.00
1461;DHT22;724;49.910;12.530;2023-02-11T05:02:27;-1.70;1.00
1461;DHT22;724;49.910;12.530;2023-02-11T05:04:53;-1.60;1.00
1461;DHT22;724;49.910;12.530;2023-02-11T05:07:20;-1.60;1.00
1461;DHT22;724;49.910;12.530;2023-02-11T05:09:47;-1.60;1.00
1461;DHT22;724;49.910;12.530;2023-02-11T05:12:13;-1.60;1.00
1461;DHT22;724;49.910;12.530;2023-02-11T05:14:42;-1.60;1.00
1461;DHT22;724;49.910;12.530;2023-02-11T05:17:08;-1.60;1.00
1461;DHT22;724;49.910;12.530;2023-02-11T05:19:35;-1.60;1.00
1461;DHT22;724;49.910;12.530;2023-02-11T05:22:02;-1.60;1.00
1461;DHT22;724;49.910;12.530;2023-02-11T05:24:29;-1.50;1.00
1461;DHT22;724;49.910;12.530;2023-02-11T05:26:55;-1.50;1.00
1461;DHT22;724;49.910;12.530;2023-02-11T05:29:22;-1.50;1.00
1461;DHT22;724;49.910;12.530;2023-02-11T05:31:50;-1.50;18.30
1461;DHT22;724;49.910;12.530;2023-02-11T05:34:17;-1.50;71.30
1461;DHT22;724;49.910;12.530;2023-02-11T05:36:44;-1.40;87.40
1461;DHT22;724;49.910;12.530;2023-02-11T05:39:10;-1.40;99.90
1461;DHT22;724;49.910;12.530;2023-02-11T05:41:37;-1.40;99.90
1461;DHT22;724;49.910;12.530;2023-02-11T05:44:04;-1.40;99.90
1461;DHT22;724;49.910;12.530;2023-02-11T05:46:31;-1.30;99.90
1461;DHT22;724;49.910;12.530;2023-02-11T05:48:59;-1.40;33.40
1461;DHT22;724;49.910;12.530;2023-02-11T05:51:25;-1.40;1.00
1461;DHT22;724;49.910;12.530;2023-02-11T05:53:52;-1.40;1.00
1461;DHT22;724;49.910;12.530;2023-02-11T05:56:19;-1.40;29.90
1461;DHT22;724;49.910;12.530;2023-02-11T05:58:46;-1.30;10.80
1461;DHT22;724;49.910;12.530;2023-02-11T06:01:13;-1.30;30.00
1461;DHT22;724;49.910;12.530;2023-02-11T06:03:39;-1.30;68.00
1461;DHT22;724;49.910;12.530;2023-02-11T06:06:10;-1.30;67.80
1461;DHT22;724;49.910;12.530;2023-02-11T06:08:37;-1.30;80.30
1461;DHT22;724;49.910;12.530;2023-02-11T06:11:03;-1.30;74.40
1461;DHT22;724;49.910;12.530;2023-02-11T06:13:30;-1.30;73.20
1461;DHT22;724;49.910;12.530;2023-02-11T06:15:58;-1.30;99.90
1461;DHT22;724;49.910;12.530;2023-02-11T06:18:25;-1.20;99.90
1461;DHT22;724;49.910;12.530;2023-02-11T06:20:52;-1.20;99.90
1461;DHT22;724;49.910;12.530;2023-02-11T06:23:20;-1.20;99.90
1461;DHT22;724;49.910;12.530;2023-02-11T06:25:46;-1.20;99.90
1461;DHT22;724;49.910;12.530;2023-02-11T06:28:13;-1.30;99.90
1461;DHT22;724;49.910;12.530;2023-02-11T06:30:40;-1.30;99.90
1461;DHT22;724;49.910;12.530;2023-02-11T06:33:07;-1.30;99.90
1461;DHT22;724;49.910;12.530;2023-02-11T06:35:33;-1.20;99.90
1461;DHT22;724;49.910;12.530;2023-02-11T06:38:01;-1.30;99.90
1461;DHT22;724;49.910;12.530;2023-02-11T06:40:29;-1.20;99.90
1461;DHT22;724;49.910;12.530;2023-02-11T06:42:55;-1.20;99.90
1461;DHT22;724;49.910;12.530;2023-02-11T06:45:22;-1.20;99.90
1461;DHT22;724;49.910;12.530;2023-02-11T06:47:50;-1.20;99.90
1461;DHT22;724;49.910;12.530;2023-02-11T06:50:18;-1.20;99.90
1461;DHT22;724;49.910;12.530;2023-02-11T06:52:44;-1.20;99.90
1461;DHT22;724;49.910;12.530;2023-02-11T06:55:11;-1.20;99.90
1461;DHT22;724;49.910;12.530;2023-02-11T06:57:39;-1.20;99.90
1461;DHT22;724;49.910;12.530;2023-02-11T07:00:07;-1.20;99.90
1461;DHT22;724;49.910;12.530;2023-02-11T07:02:34;-1.20;99.90
1461;DHT22;724;49.910;12.530;2023-02-11T07:05:01;-1.20;99.90
1461;DHT22;724;49.910;12.530;2023-02-11T07:07:28;-1.20;99.90
1461;DHT22;724;49.910;12.530;2023-02-11T07:09:56;-1.20;99.90
1461;DHT22;724;49.910;12.530;2023-02-11T07:12:23;-1.20;99.90
1461;DHT22;724;49.910;12.530;2023-02-11T07:14:51;-1.20;99.90
1461;DHT22;724;49.910;12.530;2023-02-11T07:17:18;-1.20;99.90
1461;DHT22;724;49.910;12.530;2023-02-11T07:19:45;-1.20;99.90
1461;DHT22;724;49.910;12.530;2023-02-11T07:22:11;-1.10;99.90
1461;DHT22;724;49.910;12.530;2023-02-11T07:24:38;-1.10;99.90
1461;DHT22;724;49.910;12.530;2023-02-11T07:27:05;-1.20;99.90
1461;DHT22;724;49.910;12.530;2023-02-11T07:29:32;-1.20;99.90
1461;DHT22;724;49.910;12.530;2023-02-11T07:32:00;-1.20;99.90
1461;DHT22;724;49.910;12.530;2023-02-11T07:34:26;-1.10;99.90
1461;DHT22;724;49.910;12.530;2023-02-11T07:36:53;-1.20;99.90
1461;DHT22;724;49.910;12.530;2023-02-11T07:39:20;-1.20;99.90
1461;DHT22;724;49.910;12.530;2023-02-11T07:41:47;-1.20;99.90
1461;DHT22;724;49.910;12.530;2023-02-11T07:44:14;-1.10;99.90
1461;DHT22;724;49.910;12.530;2023-02-11T07:46:41;-1.10;99.90
1461;DHT22;724;49.910;12.530;2023-02-11T07:49:11;-1.10;99.90
1461;DHT22;724;49.910;12.530;2023-02-11T07:51:38;-1.00;99.90
1461;DHT22;724;49.910;12.530;2023-02-11T07:54:05;-1.10;99.90
1461;DHT22;724;49.910;12.530;2023-02-11T07:56:31;-1.00;99.90
1461;DHT22;724;49.910;12.530;2023-02-11T07:59:00;-1.10;99.90
1461;DHT22;724;49.910;12.530;2023-02-11T08:01:28;-1.10;99.90
1461;DHT22;724;49.910;12.530;2023-02-11T08:03:56;-1.00;99.90
1461;DHT22;724;49.910;12.530;2023-02-11T08:06:26;-0.90;1.00
1461;DHT22;724;49.910;12.530;2023-02-11T08:08:54;-0.90;1.00
1461;DHT22;724;49.910;12.530;2023-02-11T08:11:22;-0.80;1.00
1461;DHT22;724;49.910;12.530;2023-02-11T08:13:50;-0.90;1.00
1461;DHT22;724;49.910;12.530;2023-02-11T08:16:18;-0.80;1.00
1461;DHT22;724;49.910;12.530;2023-02-11T08:18:45;-0.90;1.00
1461;DHT22;724;49.910;12.530;2023-02-11T08:21:13;-0.80;1.00
1461;DHT22;724;49.910;12.530;2023-02-11T08:23:42;-0.80;1.00
1461;DHT22;724;49.910;12.530;2023-02-11T08:26:12;-0.70;1.00
1461;DHT22;724;49.910;12.530;2023-02-11T08:28:40;-0.80;72.10
1461;DHT22;724;49.910;12.530;2023-02-11T08:31:09;-0.70;99.90
1461;DHT22;724;49.910;12.530;2023-02-11T08:33:36;-0.70;99.90
1461;DHT22;724;49.910;12.530;2023-02-11T08:36:07;-0.70;99.90
1461;DHT22;724;49.910;12.530;2023-02-11T08:38:34;-0.70;1.00
1461;DHT22;724;49.910;12.530;2023-02-11T08:41:03;-0.70;1.00
1461;DHT22;724;49.910;12.530;2023-02-11T08:43:30;-0.70;1.00
1461;DHT22;724;49.910;12.530;2023-02-11T08:45:57;-0.60;1.00
1461;DHT22;724;49.910;12.530;2023-02-11T08:48:24;-0.50;1.00
1461;DHT22;724;49.910;12.530;2023-02-11T08:50:50;-0.60;1.00
1461;DHT22;724;49.910;12.530;2023-02-11T08:53:17;-0.60;1.00
1461;DHT22;724;49.910;12.530;2023-02-11T08:55:47;-0.60;1.00
1461;DHT22;724;49.910;12.530;2023-02-11T08:58:15;-0.50;1.00
1461;DHT22;724;49.910;12.530;2023-02-11T09:00:42;-0.50;1.00
1461;DHT22;724;49.910;12.530;2023-02-11T09:03:09;-0.50;1.00
1461;DHT22;724;49.910;12.530;2023-02-11T09:05:40;-0.50;1.00
1461;DHT22;724;49.910;12.530;2023-02-11T09:08:06;-0.50;1.00
1461;DHT22;724;49.910;12.530;2023-02-11T09:10:33;-0.50;1.00
1461;DHT22;724;49.910;12.530;2023-02-11T09:13:00;-0.50;1.00
1461;DHT22;724;49.910;12.530;2023-02-11T09:15:28;-0.50;1.00
1461;DHT22;724;49.910;12.530;2023-02-11T09:17:55;-0.40;1.00
1461;DHT22;724;49.910;12.530;2023-02-11T09:20:22;-0.40;1.00
1461;DHT22;724;49.910;12.530;2023-02-11T09:22:49;-0.30;1.00
1461;DHT22;724;49.910;12.530;2023-02-11T09:25:15;-0.40;1.00
1461;DHT22;724;49.910;12.530;2023-02-11T09:27:42;-0.40;1.00
1461;DHT22;724;49.910;12.530;2023-02-11T09:30:10;-0.30;1.00
1461;DHT22;724;49.910;12.530;2023-02-11T09:32:38;-0.30;1.00
1461;DHT22;724;49.910;12.530;2023-02-11T09:35:05;-0.30;99.90
1461;DHT22;724;49.910;12.530;2023-02-11T09:37:32;-0.30;99.90
1461;DHT22;724;49.910;12.530;2023-02-11T09:39:59;-0.30;99.90
1461;DHT22;724;49.910;12.530;2023-02-11T09:42:53;-0.20;99.90
1461;DHT22;724;49.910;12.530;2023-02-11T09:45:25;-0.30;58.20
1461;DHT22;724;49.910;12.530;2023-02-11T09:47:56;-0.30;1.00
1461;DHT22;724;49.910;12.530;2023-02-11T09:50:28;-0.30;1.00
1461;DHT22;724;49.910;12.530;2023-02-11T09:52:57;-0.40;1.00
1461;DHT22;724;49.910;12.530;2023-02-11T09:55:29;-0.30;1.00
1461;DHT22;724;49.910;12.530;2023-02-11T09:57:56;-0.30;1.00
1461;DHT22;724;49.910;12.530;2023-02-11T10:00:27;-0.30;1.00
1461;DHT22;724;49.910;12.530;2023-02-11T10:03:24;-0.30;1.00
1461;DHT22;724;49.910;12.530;2023-02-11T10:06:09;-0.10;1.00
1461;DHT22;724;49.910;12.530;2023-02-11T10:08:46;-0.30;1.00
1461;DHT22;724;49.910;12.530;2023-02-11T10:11:22;-0.40;1.00
1461;DHT22;724;49.910;12.530;2023-02-11T10:13:59;-0.30;1.00
1461;DHT22;724;49.910;12.530;2023-02-11T10:16:41;-0.20;1.00
1461;DHT22;724;49.910;12.530;2023-02-11T10:19:29;-0.20;1.00
1461;DHT22;724;49.910;12.530;2023-02-11T10:22:06;-0.10;1.00
1461;DHT22;724;49.910;12.530;2023-02-11T10:24:35;-0.10;1.00
1461;DHT22;724;49.910;12.530;2023-02-11T10:27:07;0.00;1.00
1461;DHT22;724;49.910;12.530;2023-02-11T10:29:42;0.10;1.00
1461;DHT22;724;49.910;12.530;2023-02-11T10:32:21;0.00;1.00
1461;DHT22;724;49.910;12.530;2023-02-11T10:34:54;-0.10;1.00
1461;DHT22;724;49.910;12.530;2023-02-11T10:37:21;-0.30;1.00
1461;DHT22;724;49.910;12.530;2023-02-11T10:39:48;-0.20;1.00
1461;DHT22;724;49.910;12.530;2023-02-11T10:42:15;-0.30;1.00
1461;DHT22;724;49.910;12.530;2023-02-11T10:44:57;-0.40;1.00
1461;DHT22;724;49.910;12.530;2023-02-11T10:47:29;-0.50;99.90
1461;DHT22;724;49.910;12.530;2023-02-11T10:49:59;-0.50;99.90
1461;DHT22;724;49.910;12.530;2023-02-11T10:52:28;-0.30;99.90
1461;DHT22;724;49.910;12.530;2023-02-11T10:55:01;-0.30;99.90
1461;DHT22;724;49.910;12.530;2023-02-11T10:57:33;-0.30;99.90
1461;DHT22;724;49.910;12.530;2023-02-11T11:00:04;-0.20;99.90
1461;DHT22;724;49.910;12.530;2023-02-11T11:02:33;-0.20;99.90
1461;DHT22;724;49.910;12.530;2023-02-11T11:05:14;-0.10;99.90
1461;DHT22;724;49.910;12.530;2023-02-11T11:07:51;0.00;99.90
1461;DHT22;724;49.910;12.530;2023-02-11T11:10:34;0.00;99.90
1461;DHT22;724;49.910;12.530;2023-02-11T11:13:02;0.10;99.90
1461;DHT22;724;49.910;12.530;2023-02-11T11:15:30;0.10;94.60
1461;DHT22;724;49.910;12.530;2023-02-11T11:18:11;0.00;1.00
1461;DHT22;724;49.910;12.530;2023-02-11T11:20:43;-0.10;1.00
1461;DHT22;724;49.910;12.530;2023-02-11T11:23:22;0.00;1.00
1461;DHT22;724;49.910;12.530;2023-02-11T11:26:00;0.20;1.00
1461;DHT22;724;49.910;12.530;2023-02-11T11:28:35;0.40;1.00
1461;DHT22;724;49.910;12.530;2023-02-11T11:31:05;0.30;1.00
1461;DHT22;724;49.910;12.530;2023-02-11T11:33:40;0.30;1.00
1461;DHT22;724;49.910;12.530;2023-02-11T11:36:11;0.30;99.90
1461;DHT22;724;49.910;12.530;2023-02-11T11:38:44;0.40;99.90
1461;DHT22;724;49.910;12.530;2023-02-11T11:41:22;0.30;99.90
1461;DHT22;724;49.910;12.530;2023-02-11T11:43:55;0.40;99.90
1461;DHT22;724;49.910;12.530;2023-02-11T11:46:23;0.60;99.90
1461;DHT22;724;49.910;12.530;2023-02-11T11:48:54;0.40;99.90
1461;DHT22;724;49.910;12.530;2023-02-11T11:51:23;0.40;99.90
1461;DHT22;724;49.910;12.530;2023-02-11T11:53:56;0.50;99.90
1461;DHT22;724;49.910;12.530;2023-02-11T11:56:27;0.40;99.90
1461;DHT22;724;49.910;12.530;2023-02-11T11:58:55;0.50;99.90
1461;DHT22;724;49.910;12.530;2023-02-11T12:01:33;0.50;99.90
1461;DHT22;724;49.910;12.530;2023-02-11T12:07:24;0.60;99.90
1461;DHT22;724;49.910;12.530;2023-02-11T12:12:45;0.30;99.90
1461;DHT22;724;49.910;12.530;2023-02-11T12:15:25;0.50;99.90
1461;DHT22;724;49.910;12.530;2023-02-11T12:18:08;0.30;99.90
1461;DHT22;724;49.910;12.530;2023-02-11T12:20:54;0.40;99.90
1461;DHT22;724;49.910;12.530;2023-02-11T12:23:39;0.50;99.90
1461;DHT22;724;49.910;12.530;2023-02-11T12:26:13;0.60;99.90
1461;DHT22;724;49.910;12.530;2023-02-11T12:28:57;0.70;99.90
1461;DHT22;724;49.910;12.530;2023-02-11T12:31:32;0.50;99.90
1461;DHT22;724;49.910;12.530;2023-02-11T12:34:14;0.50;99.90
1461;DHT22;724;49.910;12.530;2023-02-11T12:36:54;0.80;99.90
1461;DHT22;724;49.910;12.530;2023-02-11T12:39:32;0.70;99.90
1461;DHT22;724;49.910;12.530;2023-02-11T12:42:16;0.80;99.90
1461;DHT22;724;49.910;12.530;2023-02-11T12:45:12;1.00;33.10
1461;DHT22;724;49.910;12.530;2023-02-11T12:47:56;1.20;1.00
1461;DHT22;724;49.910;12.530;2023-02-11T12:50:31;1.30;1.00
1461;DHT22;724;49.910;12.530;2023-02-11T12:53:23;1.10;1.00
1461;DHT22;724;49.910;12.530;2023-02-11T12:56:08;1.50;1.00
1461;DHT22;724;49.910;12.530;2023-02-11T12:58:37;1.30;1.00
1461;DHT22;724;49.910;12.530;2023-02-11T13:01:09;1.40;1.00
1461;DHT22;724;49.910;12.530;2023-02-11T13:03:43;1.50;1.00
1461;DHT22;724;49.910;12.530;2023-02-11T13:06:12;1.40;99.90
1461;DHT22;724;49.910;12.530;2023-02-11T13:08:43;1.20;99.90
1461;DHT22;724;49.910;12.530;2023-02-11T13:11:15;1.30;1.00
1461;DHT22;724;49.910;12.530;2023-02-11T13:13:48;1.00;1.00
1461;DHT22;724;49.910;12.530;2023-02-11T13:16:24;1.20;1.00
1461;DHT22;724;49.910;12.530;2023-02-11T13:18:58;1.40;1.00
1461;DHT22;724;49.910;12.530;2023-02-11T13:21:45;1.40;1.00
1461;DHT22;724;49.910;12.530;2023-02-11T13:24:21;1.40;1.00
1461;DHT22;724;49.910;12.530;2023-02-11T13:26:56;1.40;1.00
1461;DHT22;724;49.910;12.530;2023-02-11T13:29:30;1.30;1.00
1461;DHT22;724;49.910;12.530;2023-02-11T13:32:06;1.30;1.00
1461;DHT22;724;49.910;12.530;2023-02-11T13:34:53;1.30;1.00
1461;DHT22;724;49.910;12.530;2023-02-11T13:37:21;1.10;1.00
1461;DHT22;724;49.910;12.530;2023-02-11T13:39:56;1.20;1.00
1461;DHT22;724;49.910;12.530;2023-02-11T13:42:24;1.20;1.00
1461;DHT22;724;49.910;12.530;2023-02-11T13:44:52;1.20;1.00
1461;DHT22;724;49.910;12.530;2023-02-11T13:47:25;1.30;1.00
1461;DHT22;724;49.910;12.530;2023-02-11T13:49:52;1.30;1.00
1461;DHT22;724;49.910;12.530;2023-02-11T13:52:27;1.30;1.00
1461;DHT22;724;49.910;12.530;2023-02-11T13:54:56;1.50;66.90
1461;DHT22;724;49.910;12.530;2023-02-11T13:57:37;1.40;1.00
1461;DHT22;724;49.910;12.530;2023-02-11T14:03:30;1.50;1.00
1461;DHT22;724;49.910;12.530;2023-02-11T14:06:18;1.60;1.00
1461;DHT22;724;49.910;12.530;2023-02-11T14:11:53;1.70;1.00
1461;DHT22;724;49.910;12.530;2023-02-11T14:17:40;1.50;1.00
1461;DHT22;724;49.910;12.530;2023-02-11T14:20:32;1.60;27.40
1461;DHT22;724;49.910;12.530;2023-02-11T14:22:59;1.60;62.60
1461;DHT22;724;49.910;12.530;2023-02-11T14:25:26;1.70;97.80
1461;DHT22;724;49.910;12.530;2023-02-11T14:27:56;1.60;81.70
1461;DHT22;724;49.910;12.530;2023-02-11T14:30:33;1.50;99.90
1461;DHT22;724;49.910;12.530;2023-02-11T14:33:22;1.50;99.90
1461;DHT22;724;49.910;12.530;2023-02-11T14:36:00;1.60;99.90
1461;DHT22;724;49.910;12.530;2023-02-11T14:38:39;1.40;99.90
1461;DHT22;724;49.910;12.530;2023-02-11T14:41:13;1.50;1.00
1461;DHT22;724;49.910;12.530;2023-02-11T14:43:44;1.50;1.00
1461;DHT22;724;49.910;12.530;2023-02-11T14:46:14;1.50;1.00
1461;DHT22;724;49.910;12.530;2023-02-11T14:48:45;1.50;1.00
1461;DHT22;724;49.910;12.530;2023-02-11T14:51:14;1.30;1.00
1461;DHT22;724;49.910;12.530;2023-02-11T14:53:46;1.40;1.00
1461;DHT22;724;49.910;12.530;2023-02-11T14:56:17;1.30;1.00
1461;DHT22;724;49.910;12.530;2023-02-11T14:58:48;1.30;99.90
1461;DHT22;724;49.910;12.530;2023-02-11T15:01:26;1.10;99.90
1461;DHT22;724;49.910;12.530;2023-02-11T15:03:55;1.10;99.90
1461;DHT22;724;49.910;12.530;2023-02-11T15:06:25;1.10;1.00
1461;DHT22;724;49.910;12.530;2023-02-11T15:08:55;1.20;1.00
1461;DHT22;724;49.910;12.530;2023-02-11T15:11:26;1.10;1.00
1461;DHT22;724;49.910;12.530;2023-02-11T15:13:54;1.10;1.00
1461;DHT22;724;49.910;12.530;2023-02-11T15:16:24;1.10;1.00
1461;DHT22;724;49.910;12.530;2023-02-11T15:18:53;1.10;1.00
1461;DHT22;724;49.910;12.530;2023-02-11T15:21:24;1.00;1.00
1461;DHT22;724;49.910;12.530;2023-02-11T15:24:00;1.00;1.00
1461;DHT22;724;49.910;12.530;2023-02-11T15:26:27;1.00;1.00
1461;DHT22;724;49.910;12.530;2023-02-11T15:28:54;1.00;1.00
1461;DHT22;724;49.910;12.530;2023-02-11T15:31:23;1.00;1.00
1461;DHT22;724;49.910;12.530;2023-02-11T15:33:51;1.00;22.10
1461;DHT22;724;49.910;12.530;2023-02-11T15:36:21;1.00;74.60
1461;DHT22;724;49.910;12.530;2023-02-11T15:39:15;0.90;99.90
1461;DHT22;724;49.910;12.530;2023-02-11T15:41:42;0.90;99.90
1461;DHT22;724;49.910;12.530;2023-02-11T15:44:25;0.90;99.90
1461;DHT22;724;49.910;12.530;2023-02-11T15:46:52;0.80;99.90
1461;DHT22;724;49.910;12.530;2023-02-11T15:49:19;0.70;99.90
1461;DHT22;724;49.910;12.530;2023-02-11T15:51:46;0.80;99.90
1461;DHT22;724;49.910;12.530;2023-02-11T15:54:18;0.80;99.90
1461;DHT22;724;49.910;12.530;2023-02-11T15:56:48;0.80;99.90
1461;DHT22;724;49.910;12.530;2023-02-11T15:59:25;0.70;99.90
1461;DHT22;724;49.910;12.530;2023-02-11T16:01:53;0.70;99.90
1461;DHT22;724;49.910;12.530;2023-02-11T16:04:22;0.80;99.90
1461;DHT22;724;49.910;12.530;2023-02-11T16:06:50;0.70;99.90
1461;DHT22;724;49.910;12.530;2023-02-11T16:09:30;0.70;99.90
1461;DHT22;724;49.910;12.530;2023-02-11T16:12:00;0.70;99.90
1461;DHT22;724;49.910;12.530;2023-02-11T16:14:30;0.70;99.90
1461;DHT22;724;49.910;12.530;2023-02-11T16:17:00;0.70;99.90
1461;DHT22;724;49.910;12.530;2023-02-11T16:19:28;0.70;99.90
1461;DHT22;724;49.910;12.530;2023-02-11T16:21:56;0.70;99.90
1461;DHT22;724;49.910;12.530;2023-02-11T16:24:26;0.70;99.90
1461;DHT22;724;49.910;12.530;2023-02-11T16:26:56;0.70;99.90
1461;DHT22;724;49.910;12.530;2023-02-11T16:29:25;0.80;99.90
1461;DHT22;724;49.910;12.530;2023-02-11T16:32:03;0.70;99.90
1461;DHT22;724;49.910;12.530;2023-02-11T16:34:31;0.70;99.90
1461;DHT22;724;49.910;12.530;2023-02-11T16:36:57;0.70;99.90
1461;DHT22;724;49.910;12.530;2023-02-11T16:39:25;0.70;99.90
1461;DHT22;724;49.910;12.530;2023-02-11T16:41:52;0.60;99.90
1461;DHT22;724;49.910;12.530;2023-02-11T16:44:20;0.70;99.90
1461;DHT22;724;49.910;12.530;2023-02-11T16:46:49;0.70;99.90
1461;DHT22;724;49.910;12.530;2023-02-11T16:49:20;0.70;99.90
1461;DHT22;724;49.910;12.530;2023-02-11T16:51:49;0.70;99.90
1461;DHT22;724;49.910;12.530;2023-02-11T16:54:22;0.70;99.90
1461;DHT22;724;49.910;12.530;2023-02-11T16:56:50;0.70;99.90